sensor_id;sensor_type;location;lat;lon;timestamp;pressure;altitude;pressure_sealevel;temperature;humidity
62510;BME280;48558;48.242;11.654;2023-05-23T00:02:56;95898.81;;;16.03;100.00
62510;BME280;48558;48.242;11.654;2023-05-23T00:07:09;95907.19;;;15.75;100.00
62510;BME280;48558;48.242;11.654;2023-05-23T00:11:22;95900.34;;;15.76;100.00
62510;BME280;48558;48.242;11.654;2023-05-23T00:15:38;95893.03;;;15.62;100.00
62510;BME280;48558;48.242;11.654;2023-05-23T00:19:52;95902.09;;;15.63;100.00
62510;BME280;48558;48.242;11.654;2023-05-23T00:24:07;95898.31;;;15.66;100.00
62510;BME280;48558;48.242;11.654;2023-05-23T00:28:21;95899.34;;;15.68;100.00
62510;BME280;48558;48.242;11.654;2023-05-23T00:32:33;95900.84;;;15.86;100.00
62510;BME280;48558;48.242;11.654;2023-05-23T00:36:56;95896.53;;;15.91;100.00
62510;BME280;48558;48.242;11.654;2023-05-23T00:41:09;95906.44;;;16.03;100.00
62510;BME280;48558;48.242;11.654;2023-05-23T00:45:28;95913.25;;;16.07;100.00
62510;BME280;48558;48.242;11.654;2023-05-23T00:49:42;95899.31;;;16.13;100.00
62510;BME280;48558;48.242;11.654;2023-05-23T00:53:55;95908.44;;;16.19;100.00
62510;BME280;48558;48.242;11.654;2023-05-23T00:58:07;95906.13;;;16.23;100.00
62510;BME280;48558;48.242;11.654;2023-05-23T01:02:21;95909.41;;;16.27;100.00
62510;BME280;48558;48.242;11.654;2023-05-23T01:06:34;95909.44;;;16.16;100.00
62510;BME280;48558;48.242;11.654;2023-05-23T01:10:53;95911.97;;;16.14;100.00
62510;BME280;48558;48.242;11.654;2023-05-23T01:15:08;95914.25;;;16.15;100.00
62510;BME280;48558;48.242;11.654;2023-05-23T01:19:55;95912.72;;;16.20;100.00
62510;BME280;48558;48.242;11.654;2023-05-23T01:28:52;95916.00;;;16.24;100.00
62510;BME280;48558;48.242;11.654;2023-05-23T01:33:07;95917.81;;;16.21;100.00
62510;BME280;48558;48.242;11.654;2023-05-23T01:37:21;95909.97;;;16.14;100.00
62510;BME280;48558;48.242;11.654;2023-05-23T01:41:33;95916.28;;;16.26;100.00
62510;BME280;48558;48.242;11.654;2023-05-23T01:45:47;95920.06;;;16.17;100.00
62510;BME280;48558;48.242;11.654;2023-05-23T01:50:01;95929.47;;;16.14;100.00
62510;BME280;48558;48.242;11.654;2023-05-23T01:54:24;95931.50;;;15.97;100.00
62510;BME280;48558;48.242;11.654;2023-05-23T01:58:37;95939.09;;;15.91;100.00
62510;BME280;48558;48.242;11.654;2023-05-23T02:03:00;95947.97;;;15.84;100.00
62510;BME280;48558;48.242;11.654;2023-05-23T02:07:14;95946.44;;;15.66;100.00
62510;BME280;48558;48.242;11.654;2023-05-23T02:11:26;95944.13;;;15.54;100.00
62510;BME280;48558;48.242;11.654;2023-05-23T02:15:49;95942.84;;;15.49;100.00
62510;BME280;48558;48.242;11.654;2023-05-23T02:20:02;95948.69;;;15.46;100.00
62510;BME280;48558;48.242;11.654;2023-05-23T02:24:15;95939.09;;;15.58;100.00
62510;BME280;48558;48.242;11.654;2023-05-23T02:28:27;95936.00;;;15.39;100.00
62510;BME280;48558;48.242;11.654;2023-05-23T02:32:40;95948.91;;;15.42;100.00
62510;BME280;48558;48.242;11.654;2023-05-23T02:37:03;95946.66;;;15.46;100.00
62510;BME280;48558;48.242;11.654;2023-05-23T02:41:15;95945.31;;;15.25;100.00
62510;BME280;48558;48.242;11.654;2023-05-23T02:45:28;95950.63;;;15.23;100.00
62510;BME280;48558;48.242;11.654;2023-05-23T02:49:41;95952.09;;;15.07;100.00
62510;BME280;48558;48.242;11.654;2023-05-23T02:53:53;95960.16;;;15.00;100.00
62510;BME280;48558;48.242;11.654;2023-05-23T02:58:06;95957.38;;;15.00;100.00
62510;BME280;48558;48.242;11.654;2023-05-23T03:02:18;95959.63;;;14.96;100.00
62510;BME280;48558;48.242;11.654;2023-05-23T03:06:32;95978.06;;;14.88;100.00
62510;BME280;48558;48.242;11.654;2023-05-23T03:10:45;95967.22;;;14.90;100.00
62510;BME280;48558;48.242;11.654;2023-05-23T03:15:08;95964.38;;;14.79;100.00
62510;BME280;48558;48.242;11.654;2023-05-23T03:19:21;95967.91;;;14.79;100.00
62510;BME280;48558;48.242;11.654;2023-05-23T03:23:34;95965.13;;;14.79;100.00
62510;BME280;48558;48.242;11.654;2023-05-23T03:27:54;95968.44;;;14.83;100.00
62510;BME280;48558;48.242;11.654;2023-05-23T03:32:07;95968.41;;;14.78;100.00
62510;BME280;48558;48.242;11.654;2023-05-23T03:36:19;95963.88;;;14.86;100.00
62510;BME280;48558;48.242;11.654;2023-05-23T03:40:33;95986.13;;;14.80;100.00
62510;BME280;48558;48.242;11.654;2023-05-23T03:44:47;95976.75;;;14.78;100.00
62510;BME280;48558;48.242;11.654;2023-05-23T03:48:59;95975.72;;;14.70;100.00
62510;BME280;48558;48.242;11.654;2023-05-23T03:53:12;95957.97;;;14.62;100.00
62510;BME280;48558;48.242;11.654;2023-05-23T03:57:24;95975.75;;;14.81;100.00
62510;BME280;48558;48.242;11.654;2023-05-23T04:01:37;95980.69;;;15.08;100.00
62510;BME280;48558;48.242;11.654;2023-05-23T04:05:50;95969.00;;;15.04;100.00
62510;BME280;48558;48.242;11.654;2023-05-23T04:10:04;95970.59;;;15.16;100.00
62510;BME280;48558;48.242;11.654;2023-05-23T04:14:17;95975.34;;;15.04;100.00
62510;BME280;48558;48.242;11.654;2023-05-23T04:18:41;95989.78;;;15.08;100.00
62510;BME280;48558;48.242;11.654;2023-05-23T04:22:54;95986.75;;;15.06;100.00
62510;BME280;48558;48.242;11.654;2023-05-23T04:27:07;95988.06;;;15.17;100.00
62510;BME280;48558;48.242;11.654;2023-05-23T04:31:29;96007.59;;;15.33;100.00
62510;BME280;48558;48.242;11.654;2023-05-23T04:35:52;96007.16;;;15.46;100.00
62510;BME280;48558;48.242;11.654;2023-05-23T04:40:07;96003.16;;;15.69;100.00
62510;BME280;48558;48.242;11.654;2023-05-23T04:44:21;96015.59;;;15.73;100.00
62510;BME280;48558;48.242;11.654;2023-05-23T04:48:35;96011.53;;;15.86;100.00
62510;BME280;48558;48.242;11.654;2023-05-23T04:52:48;96022.44;;;15.89;100.00
62510;BME280;48558;48.242;11.654;2023-05-23T04:57:01;96025.25;;;15.89;100.00
62510;BME280;48558;48.242;11.654;2023-05-23T05:01:13;96024.72;;;16.02;100.00
62510;BME280;48558;48.242;11.654;2023-05-23T05:05:26;96012.59;;;16.16;100.00
62510;BME280;48558;48.242;11.654;2023-05-23T05:09:39;96022.44;;;16.06;100.00
62510;BME280;48558;48.242;11.654;2023-05-23T05:13:51;96022.22;;;16.31;100.00
62510;BME280;48558;48.242;11.654;2023-05-23T05:18:04;96016.91;;;16.61;100.00
62510;BME280;48558;48.242;11.654;2023-05-23T05:22:17;96019.44;;;16.37;100.00
62510;BME280;48558;48.242;11.654;2023-05-23T05:26:29;96016.88;;;16.50;100.00
62510;BME280;48558;48.242;11.654;2023-05-23T05:30:50;96025.22;;;16.89;100.00
62510;BME280;48558;48.242;11.654;2023-05-23T05:35:06;96037.44;;;17.49;100.00
62510;BME280;48558;48.242;11.654;2023-05-23T05:39:19;96043.25;;;18.03;100.00
62510;BME280;48558;48.242;11.654;2023-05-23T05:43:32;96043.88;;;17.90;100.00
62510;BME280;48558;48.242;11.654;2023-05-23T05:47:54;96032.63;;;17.55;100.00
62510;BME280;48558;48.242;11.654;2023-05-23T05:52:07;96040.00;;;17.99;100.00
62510;BME280;48558;48.242;11.654;2023-05-23T05:56:20;96046.81;;;18.03;100.00
62510;BME280;48558;48.242;11.654;2023-05-23T06:00:43;96038.41;;;17.62;100.00
62510;BME280;48558;48.242;11.654;2023-05-23T06:04:56;96044.63;;;17.90;100.00
62510;BME280;48558;48.242;11.654;2023-05-23T06:09:09;96051.09;;;18.10;100.00
62510;BME280;48558;48.242;11.654;2023-05-23T06:13:24;96044.78;;;18.04;100.00
62510;BME280;48558;48.242;11.654;2023-05-23T06:17:37;96048.34;;;18.04;100.00
62510;BME280;48558;48.242;11.654;2023-05-23T06:21:49;96056.06;;;17.92;100.00
62510;BME280;48558;48.242;11.654;2023-05-23T06:26:02;96052.41;;;18.03;100.00
62510;BME280;48558;48.242;11.654;2023-05-23T06:30:15;96060.53;;;18.47;100.00
62510;BME280;48558;48.242;11.654;2023-05-23T06:34:27;96058.94;;;18.82;100.00
62510;BME280;48558;48.242;11.654;2023-05-23T06:38:40;96071.91;;;18.14;100.00
62510;BME280;48558;48.242;11.654;2023-05-23T06:42:53;96065.59;;;18.43;100.00
62510;BME280;48558;48.242;11.654;2023-05-23T06:47:06;96060.31;;;18.99;100.00
62510;BME280;48558;48.242;11.654;2023-05-23T06:51:19;96068.16;;;18.77;100.00
62510;BME280;48558;48.242;11.654;2023-05-23T06:55:31;96073.06;;;18.30;100.00
62510;BME280;48558;48.242;11.654;2023-05-23T06:59:50;96071.44;;;18.81;100.00
62510;BME280;48558;48.242;11.654;2023-05-23T07:04:03;96076.75;;;19.32;100.00
62510;BME280;48558;48.242;11.654;2023-05-23T07:08:16;96069.47;;;19.24;100.00
62510;BME280;48558;48.242;11.654;2023-05-23T07:12:38;96073.03;;;19.00;100.00
62510;BME280;48558;48.242;11.654;2023-05-23T07:16:51;96079.56;;;19.57;100.00
62510;BME280;48558;48.242;11.654;2023-05-23T07:21:04;96084.84;;;20.03;100.00
62510;BME280;48558;48.242;11.654;2023-05-23T07:25:16;96080.41;;;19.70;100.00
62510;BME280;48558;48.242;11.654;2023-05-23T07:29:29;96092.19;;;19.87;100.00
62510;BME280;48558;48.242;11.654;2023-05-23T07:33:42;96085.97;;;19.76;100.00
62510;BME280;48558;48.242;11.654;2023-05-23T07:37:55;96078.00;;;19.80;100.00
62510;BME280;48558;48.242;11.654;2023-05-23T07:42:08;96081.50;;;19.19;100.00
62510;BME280;48558;48.242;11.654;2023-05-23T07:46:21;96084.34;;;19.13;100.00
62510;BME280;48558;48.242;11.654;2023-05-23T07:50:34;96087.88;;;20.05;100.00
62510;BME280;48558;48.242;11.654;2023-05-23T07:54:46;96087.09;;;19.67;100.00
62510;BME280;48558;48.242;11.654;2023-05-23T07:58:59;96089.06;;;19.91;100.00
62510;BME280;48558;48.242;11.654;2023-05-23T08:03:12;96093.84;;;19.77;100.00
62510;BME280;48558;48.242;11.654;2023-05-23T08:07:34;96096.28;;;20.74;100.00
62510;BME280;48558;48.242;11.654;2023-05-23T08:11:47;96098.38;;;21.44;100.00
62510;BME280;48558;48.242;11.654;2023-05-23T08:16:09;96094.25;;;20.24;100.00
62510;BME280;48558;48.242;11.654;2023-05-23T08:20:22;96085.84;;;20.24;100.00
62510;BME280;48558;48.242;11.654;2023-05-23T08:24:41;96105.81;;;19.78;100.00
62510;BME280;48558;48.242;11.654;2023-05-23T08:28:54;96094.41;;;19.94;100.00
62510;BME280;48558;48.242;11.654;2023-05-23T08:33:07;96107.13;;;19.95;100.00
62510;BME280;48558;48.242;11.654;2023-05-23T08:37:19;96117.06;;;20.52;100.00
62510;BME280;48558;48.242;11.654;2023-05-23T08:41:32;96113.09;;;20.61;100.00
62510;BME280;48558;48.242;11.654;2023-05-23T08:45:56;96114.03;;;20.50;100.00
62510;BME280;48558;48.242;11.654;2023-05-23T08:50:16;96110.72;;;21.55;100.00
62510;BME280;48558;48.242;11.654;2023-05-23T08:54:37;96110.41;;;21.45;100.00
62510;BME280;48558;48.242;11.654;2023-05-23T08:58:49;96116.03;;;21.32;100.00
62510;BME280;48558;48.242;11.654;2023-05-23T09:03:04;96126.19;;;21.48;100.00
62510;BME280;48558;48.242;11.654;2023-05-23T09:07:17;96117.69;;;21.09;100.00
62510;BME280;48558;48.242;11.654;2023-05-23T09:11:30;96124.38;;;20.24;100.00
62510;BME280;48558;48.242;11.654;2023-05-23T09:16:14;96124.66;;;20.57;100.00
62510;BME280;48558;48.242;11.654;2023-05-23T09:20:29;96128.66;;;20.62;100.00
62510;BME280;48558;48.242;11.654;2023-05-23T09:24:42;96127.75;;;20.86;100.00
62510;BME280;48558;48.242;11.654;2023-05-23T09:28:56;96136.69;;;20.71;100.00
62510;BME280;48558;48.242;11.654;2023-05-23T09:33:20;96135.56;;;21.24;100.00
62510;BME280;48558;48.242;11.654;2023-05-23T09:37:38;96130.19;;;22.05;100.00
62510;BME280;48558;48.242;11.654;2023-05-23T09:41:59;96138.03;;;22.79;100.00
62510;BME280;48558;48.242;11.654;2023-05-23T09:46:12;96140.03;;;21.46;100.00
62510;BME280;48558;48.242;11.654;2023-05-23T09:50:30;96138.00;;;21.73;100.00
62510;BME280;48558;48.242;11.654;2023-05-23T09:54:54;96140.53;;;21.18;100.00
62510;BME280;48558;48.242;11.654;2023-05-23T09:59:07;96131.25;;;20.41;100.00
62510;BME280;48558;48.242;11.654;2023-05-23T10:03:48;96135.31;;;21.09;100.00
62510;BME280;48558;48.242;11.654;2023-05-23T10:08:07;96133.00;;;22.18;100.00
62510;BME280;48558;48.242;11.654;2023-05-23T10:17:07;96129.31;;;22.91;100.00
62510;BME280;48558;48.242;11.654;2023-05-23T10:21:37;96135.94;;;22.46;100.00
62510;BME280;48558;48.242;11.654;2023-05-23T10:25:57;96132.81;;;22.83;100.00
62510;BME280;48558;48.242;11.654;2023-05-23T10:30:10;96118.03;;;23.88;100.00
62510;BME280;48558;48.242;11.654;2023-05-23T10:34:39;96125.63;;;21.23;100.00
62510;BME280;48558;48.242;11.654;2023-05-23T10:39:18;96119.16;;;21.81;100.00
62510;BME280;48558;48.242;11.654;2023-05-23T10:43:53;96115.66;;;22.27;100.00
62510;BME280;48558;48.242;11.654;2023-05-23T10:52:40;96101.06;;;24.16;82.88
62510;BME280;48558;48.242;11.654;2023-05-23T10:57:03;96118.66;;;25.49;85.37
62510;BME280;48558;48.242;11.654;2023-05-23T11:01:18;96099.81;;;25.67;73.01
62510;BME280;48558;48.242;11.654;2023-05-23T11:05:46;96121.09;;;25.07;79.63
62510;BME280;48558;48.242;11.654;2023-05-23T11:10:11;96107.34;;;25.11;78.39
62510;BME280;48558;48.242;11.654;2023-05-23T11:14:52;96103.31;;;24.69;73.74
62510;BME280;48558;48.242;11.654;2023-05-23T11:23:40;96091.09;;;24.81;84.98
62510;BME280;48558;48.242;11.654;2023-05-23T11:27:53;96090.66;;;24.04;92.59
62510;BME280;48558;48.242;11.654;2023-05-23T11:32:10;96102.91;;;22.13;99.64
62510;BME280;48558;48.242;11.654;2023-05-23T11:36:38;96089.03;;;22.82;96.47
62510;BME280;48558;48.242;11.654;2023-05-23T11:40:51;96099.97;;;22.52;96.84
62510;BME280;48558;48.242;11.654;2023-05-23T11:45:08;96098.03;;;23.79;86.53
62510;BME280;48558;48.242;11.654;2023-05-23T11:49:20;96083.13;;;24.57;81.49
62510;BME280;48558;48.242;11.654;2023-05-23T11:53:33;96074.06;;;24.59;84.39
62510;BME280;48558;48.242;11.654;2023-05-23T11:57:45;96081.44;;;25.83;71.78
62510;BME280;48558;48.242;11.654;2023-05-23T12:01:58;96073.38;;;26.26;72.57
62510;BME280;48558;48.242;11.654;2023-05-23T12:06:20;96078.13;;;25.01;81.30
62510;BME280;48558;48.242;11.654;2023-05-23T12:10:34;96081.09;;;23.22;90.47
62510;BME280;48558;48.242;11.654;2023-05-23T12:14:55;96083.25;;;23.09;94.59
62510;BME280;48558;48.242;11.654;2023-05-23T12:19:18;96089.53;;;21.93;100.00
62510;BME280;48558;48.242;11.654;2023-05-23T12:23:31;96085.31;;;21.73;100.00
62510;BME280;48558;48.242;11.654;2023-05-23T12:27:55;96080.88;;;21.65;100.00
62510;BME280;48558;48.242;11.654;2023-05-23T12:32:08;96087.91;;;24.19;92.26
62510;BME280;48558;48.242;11.654;2023-05-23T12:36:24;96086.38;;;25.75;71.59
62510;BME280;48558;48.242;11.654;2023-05-23T12:40:41;96094.63;;;25.88;67.59
62510;BME280;48558;48.242;11.654;2023-05-23T12:44:54;96089.78;;;25.66;71.97
62510;BME280;48558;48.242;11.654;2023-05-23T12:49:17;96097.59;;;23.18;91.59
62510;BME280;48558;48.242;11.654;2023-05-23T12:53:30;96094.00;;;24.02;94.84
62510;BME280;48558;48.242;11.654;2023-05-23T12:57:43;96101.06;;;22.83;96.26
62510;BME280;48558;48.242;11.654;2023-05-23T13:01:55;96093.66;;;22.39;100.00
62510;BME280;48558;48.242;11.654;2023-05-23T13:06:08;96088.47;;;25.29;85.15
62510;BME280;48558;48.242;11.654;2023-05-23T13:10:20;96094.91;;;23.62;88.79
62510;BME280;48558;48.242;11.654;2023-05-23T13:14:43;96092.22;;;24.20;82.54
62510;BME280;48558;48.242;11.654;2023-05-23T13:18:56;96101.50;;;25.09;76.32
62510;BME280;48558;48.242;11.654;2023-05-23T13:23:09;96096.03;;;25.49;70.20
62510;BME280;48558;48.242;11.654;2023-05-23T13:27:22;96081.84;;;23.23;77.57
62510;BME280;48558;48.242;11.654;2023-05-23T13:31:35;96092.81;;;23.06;81.14
62510;BME280;48558;48.242;11.654;2023-05-23T13:35:48;96080.75;;;23.05;83.48
62510;BME280;48558;48.242;11.654;2023-05-23T13:40:03;96072.09;;;23.24;80.63
62510;BME280;48558;48.242;11.654;2023-05-23T13:44:16;96065.66;;;24.74;71.17
62510;BME280;48558;48.242;11.654;2023-05-23T13:48:29;96060.19;;;25.06;66.93
62510;BME280;48558;48.242;11.654;2023-05-23T13:52:41;96055.00;;;23.86;75.31
62510;BME280;48558;48.242;11.654;2023-05-23T13:57:04;96061.66;;;23.11;83.46
62510;BME280;48558;48.242;11.654;2023-05-23T14:01:17;96050.94;;;25.36;71.63
62510;BME280;48558;48.242;11.654;2023-05-23T14:05:30;96062.13;;;24.22;70.82
62510;BME280;48558;48.242;11.654;2023-05-23T14:09:53;96065.91;;;24.25;66.65
62510;BME280;48558;48.242;11.654;2023-05-23T14:14:05;96073.13;;;24.56;65.23
62510;BME280;48558;48.242;11.654;2023-05-23T14:18:18;96060.06;;;24.23;66.78
62510;BME280;48558;48.242;11.654;2023-05-23T14:22:31;96058.16;;;25.14;63.18
62510;BME280;48558;48.242;11.654;2023-05-23T14:26:43;96057.38;;;24.91;66.60
62510;BME280;48558;48.242;11.654;2023-05-23T14:30:56;96069.78;;;24.73;65.75
62510;BME280;48558;48.242;11.654;2023-05-23T14:35:10;96053.00;;;24.01;66.84
62510;BME280;48558;48.242;11.654;2023-05-23T14:39:23;96071.84;;;24.65;64.83
62510;BME280;48558;48.242;11.654;2023-05-23T14:43:36;96065.59;;;25.80;62.57
62510;BME280;48558;48.242;11.654;2023-05-23T14:47:49;96079.56;;;23.42;68.00
62510;BME280;48558;48.242;11.654;2023-05-23T14:52:02;96091.38;;;22.58;77.00
62510;BME280;48558;48.242;11.654;2023-05-23T14:56:14;96100.66;;;22.45;80.36
62510;BME280;48558;48.242;11.654;2023-05-23T15:00:27;96103.50;;;21.46;85.20
62510;BME280;48558;48.242;11.654;2023-05-23T15:04:41;96114.16;;;21.21;87.55
62510;BME280;48558;48.242;11.654;2023-05-23T15:08:54;96106.53;;;22.34;81.31
62510;BME280;48558;48.242;11.654;2023-05-23T15:13:07;96100.09;;;22.80;80.06
62510;BME280;48558;48.242;11.654;2023-05-23T15:17:20;96110.47;;;23.27;70.91
62510;BME280;48558;48.242;11.654;2023-05-23T15:21:37;96111.56;;;21.76;79.99
62510;BME280;48558;48.242;11.654;2023-05-23T15:25:54;96113.31;;;21.39;85.28
62510;BME280;48558;48.242;11.654;2023-05-23T15:30:17;96125.09;;;21.25;83.90
62510;BME280;48558;48.242;11.654;2023-05-23T15:34:33;96105.22;;;21.49;79.32
62510;BME280;48558;48.242;11.654;2023-05-23T15:38:45;96116.16;;;21.53;74.21
62510;BME280;48558;48.242;11.654;2023-05-23T15:42:58;96121.06;;;21.07;78.64
62510;BME280;48558;48.242;11.654;2023-05-23T15:47:18;96127.34;;;21.26;78.47
62510;BME280;48558;48.242;11.654;2023-05-23T15:51:31;96124.19;;;20.85;78.51
62510;BME280;48558;48.242;11.654;2023-05-23T15:55:44;96111.16;;;21.59;75.21
62510;BME280;48558;48.242;11.654;2023-05-23T15:59:57;96116.59;;;23.67;62.90
62510;BME280;48558;48.242;11.654;2023-05-23T16:04:10;96122.84;;;21.63;75.70
62510;BME280;48558;48.242;11.654;2023-05-23T16:08:23;96131.53;;;20.56;83.73
62510;BME280;48558;48.242;11.654;2023-05-23T16:12:45;96138.06;;;20.64;81.26
62510;BME280;48558;48.242;11.654;2023-05-23T16:16:58;96140.56;;;20.68;83.90
62510;BME280;48558;48.242;11.654;2023-05-23T16:21:13;96140.03;;;21.46;79.32
62510;BME280;48558;48.242;11.654;2023-05-23T16:25:41;96131.94;;;20.47;82.46
62510;BME280;48558;48.242;11.654;2023-05-23T16:30:04;96134.13;;;20.17;87.33
62510;BME280;48558;48.242;11.654;2023-05-23T16:34:17;96133.31;;;19.79;88.22
62510;BME280;48558;48.242;11.654;2023-05-23T16:38:30;96125.63;;;20.04;89.96
62510;BME280;48558;48.242;11.654;2023-05-23T16:42:43;96147.88;;;19.78;89.63
62510;BME280;48558;48.242;11.654;2023-05-23T16:46:55;96148.25;;;19.45;89.94
62510;BME280;48558;48.242;11.654;2023-05-23T16:51:08;96139.84;;;19.45;89.73
62510;BME280;48558;48.242;11.654;2023-05-23T16:55:21;96140.75;;;19.77;88.71
62510;BME280;48558;48.242;11.654;2023-05-23T16:59:34;96138.81;;;20.65;84.54
62510;BME280;48558;48.242;11.654;2023-05-23T17:03:47;96155.47;;;20.01;86.36
62510;BME280;48558;48.242;11.654;2023-05-23T17:08:00;96141.66;;;20.28;82.82
62510;BME280;48558;48.242;11.654;2023-05-23T17:12:13;96156.00;;;19.57;86.61
62510;BME280;48558;48.242;11.654;2023-05-23T17:16:31;96163.59;;;19.08;90.33
62510;BME280;48558;48.242;11.654;2023-05-23T17:20:44;96165.53;;;18.89;92.54
62510;BME280;48558;48.242;11.654;2023-05-23T17:24:57;96160.81;;;18.73;94.36
62510;BME280;48558;48.242;11.654;2023-05-23T17:29:12;96161.22;;;18.53;99.26
62510;BME280;48558;48.242;11.654;2023-05-23T17:33:28;96166.56;;;18.51;98.17
62510;BME280;48558;48.242;11.654;2023-05-23T17:37:41;96159.78;;;18.35;97.97
62510;BME280;48558;48.242;11.654;2023-05-23T17:41:55;96167.00;;;18.20;98.36
62510;BME280;48558;48.242;11.654;2023-05-23T17:46:08;96173.34;;;18.20;98.38
62510;BME280;48558;48.242;11.654;2023-05-23T17:50:21;96175.13;;;18.18;97.17
62510;BME280;48558;48.242;11.654;2023-05-23T17:54:33;96173.13;;;18.13;98.53
62510;BME280;48558;48.242;11.654;2023-05-23T17:58:47;96175.69;;;18.11;97.73
62510;BME280;48558;48.242;11.654;2023-05-23T18:03:02;96176.38;;;18.22;96.96
62510;BME280;48558;48.242;11.654;2023-05-23T18:07:15;96174.31;;;18.23;96.28
62510;BME280;48558;48.242;11.654;2023-05-23T18:11:41;96168.25;;;18.19;100.00
62510;BME280;48558;48.242;11.654;2023-05-23T18:15:54;96186.53;;;18.25;97.86
62510;BME280;48558;48.242;11.654;2023-05-23T18:20:07;96181.75;;;18.15;96.47
62510;BME280;48558;48.242;11.654;2023-05-23T18:24:19;96184.59;;;18.04;95.84
62510;BME280;48558;48.242;11.654;2023-05-23T18:28:32;96197.88;;;17.92;96.20
62510;BME280;48558;48.242;11.654;2023-05-23T18:32:45;96205.25;;;17.89;97.03
62510;BME280;48558;48.242;11.654;2023-05-23T18:36:57;96202.22;;;17.82;98.32
62510;BME280;48558;48.242;11.654;2023-05-23T18:41:10;96201.75;;;17.72;100.00
62510;BME280;48558;48.242;11.654;2023-05-23T18:45:35;96210.16;;;17.61;100.00
62510;BME280;48558;48.242;11.654;2023-05-23T18:49:48;96207.88;;;17.60;100.00
62510;BME280;48558;48.242;11.654;2023-05-23T18:54:01;96216.25;;;17.60;100.00
62510;BME280;48558;48.242;11.654;2023-05-23T18:58:15;96224.91;;;17.51;100.00
62510;BME280;48558;48.242;11.654;2023-05-23T19:02:30;96228.44;;;17.40;100.00
62510;BME280;48558;48.242;11.654;2023-05-23T19:06:44;96231.75;;;17.39;100.00
62510;BME280;48558;48.242;11.654;2023-05-23T19:11:00;96246.72;;;17.36;100.00
62510;BME280;48558;48.242;11.654;2023-05-23T19:15:12;96254.09;;;17.22;100.00
62510;BME280;48558;48.242;11.654;2023-05-23T19:19:26;96256.91;;;17.28;100.00
62510;BME280;48558;48.242;11.654;2023-05-23T19:23:44;96262.22;;;17.20;100.00
62510;BME280;48558;48.242;11.654;2023-05-23T19:27:56;96268.06;;;17.16;100.00
62510;BME280;48558;48.242;11.654;2023-05-23T19:32:09;96273.66;;;17.11;100.00
62510;BME280;48558;48.242;11.654;2023-05-23T19:36:21;96271.34;;;16.98;100.00
62510;BME280;48558;48.242;11.654;2023-05-23T19:40:34;96275.91;;;16.90;100.00
62510;BME280;48558;48.242;11.654;2023-05-23T19:44:54;96278.69;;;16.90;100.00
62510;BME280;48558;48.242;11.654;2023-05-23T19:49:06;96281.72;;;16.81;100.00
62510;BME280;48558;48.242;11.654;2023-05-23T19:53:19;96291.09;;;16.73;100.00
62510;BME280;48558;48.242;11.654;2023-05-23T19:57:33;96289.03;;;16.57;100.00
62510;BME280;48558;48.242;11.654;2023-05-23T20:01:46;96296.81;;;16.47;100.00
62510;BME280;48558;48.242;11.654;2023-05-23T20:05:59;96286.34;;;16.31;100.00
62510;BME280;48558;48.242;11.654;2023-05-23T20:10:12;96302.78;;;16.18;100.00
62510;BME280;48558;48.242;11.654;2023-05-23T20:14:25;96296.13;;;16.04;100.00
62510;BME280;48558;48.242;11.654;2023-05-23T20:18:49;96305.91;;;15.89;100.00
62510;BME280;48558;48.242;11.654;2023-05-23T20:23:02;96311.50;;;15.89;100.00
62510;BME280;48558;48.242;11.654;2023-05-23T20:27:15;96326.59;;;15.76;100.00
62510;BME280;48558;48.242;11.654;2023-05-23T20:31:29;96334.22;;;15.76;100.00
62510;BME280;48558;48.242;11.654;2023-05-23T20:35:41;96334.94;;;15.71;100.00
62510;BME280;48558;48.242;11.654;2023-05-23T20:39:54;96333.09;;;15.62;100.00
62510;BME280;48558;48.242;11.654;2023-05-23T20:44:07;96326.97;;;15.58;100.00
62510;BME280;48558;48.242;11.654;2023-05-23T20:48:23;96318.88;;;15.29;100.00
62510;BME280;48558;48.242;11.654;2023-05-23T20:52:36;96331.28;;;15.28;100.00
62510;BME280;48558;48.242;11.654;2023-05-23T20:56:50;96324.78;;;15.11;100.00
62510;BME280;48558;48.242;11.654;2023-05-23T21:01:05;96330.56;;;15.07;100.00
62510;BME280;48558;48.242;11.654;2023-05-23T21:05:19;96324.63;;;14.94;100.00
62510;BME280;48558;48.242;11.654;2023-05-23T21:09:32;96341.25;;;14.89;100.00
62510;BME280;48558;48.242;11.654;2023-05-23T21:13:44;96342.97;;;14.81;100.00
62510;BME280;48558;48.242;11.654;2023-05-23T21:17:57;96347.41;;;14.73;100.00
62510;BME280;48558;48.242;11.654;2023-05-23T21:22:10;96343.41;;;14.54;100.00
62510;BME280;48558;48.242;11.654;2023-05-23T21:26:22;96350.06;;;14.42;100.00
62510;BME280;48558;48.242;11.654;2023-05-23T21:30:35;96357.69;;;14.26;100.00
62510;BME280;48558;48.242;11.654;2023-05-23T21:34:47;96336.91;;;14.02;100.00
62510;BME280;48558;48.242;11.654;2023-05-23T21:39:00;96353.50;;;14.16;100.00
62510;BME280;48558;48.242;11.654;2023-05-23T21:43:13;96358.88;;;14.20;100.00
62510;BME280;48558;48.242;11.654;2023-05-23T21:47:25;96352.97;;;14.12;100.00
62510;BME280;48558;48.242;11.654;2023-05-23T21:51:48;96354.69;;;14.10;100.00
62510;BME280;48558;48.242;11.654;2023-05-23T21:56:00;96364.97;;;14.04;100.00
62510;BME280;48558;48.242;11.654;2023-05-23T22:00:14;96366.47;;;14.05;100.00
62510;BME280;48558;48.242;11.654;2023-05-23T22:04:26;96375.59;;;14.05;100.00
62510;BME280;48558;48.242;11.654;2023-05-23T22:08:39;96363.53;;;13.94;100.00
62510;BME280;48558;48.242;11.654;2023-05-23T22:12:53;96370.66;;;13.95;100.00
62510;BME280;48558;48.242;11.654;2023-05-23T22:17:06;96374.78;;;13.85;100.00
62510;BME280;48558;48.242;11.654;2023-05-23T22:21:19;96386.66;;;13.85;100.00